Aviation Digital Data Service (ADDS)

Output produced by METARs form (1153 UTC 27 March 2015)
found at http://aviationweather.gov/adds/metars/
 
KRDU 271120Z 2712/2812 01012KT 6SM -RA BKN015 OVC030 
     TEMPO 2712/2716 01015G24KT 2SM RA OVC009 
     FM280100 34010KT P6SM VCSH OVC005 
     FM280500 34012G18KT P6SM SKC